createdAt,value
2018-09-17T00:01:48.647Z,58.00
2018-09-17T00:04:23.197Z,58.60
2018-09-17T00:06:56.757Z,58.60
2018-09-17T00:09:30.228Z,58.40
2018-09-17T00:12:03.709Z,58.40
2018-09-17T00:14:37.247Z,58.60
2018-09-17T00:17:10.618Z,58.70
2018-09-17T00:19:44.108Z,58.80
2018-09-17T00:22:17.585Z,58.80
2018-09-17T00:24:51.065Z,59.00
2018-09-17T00:27:25.451Z,58.90
2018-09-17T00:29:58.884Z,59.00
2018-09-17T00:32:32.509Z,59.00
2018-09-17T00:35:05.919Z,59.20
2018-09-17T00:37:39.372Z,59.10
2018-09-17T00:40:12.843Z,59.00
2018-09-17T00:42:46.261Z,59.20
2018-09-17T00:45:19.660Z,59.30
2018-09-17T00:47:53.221Z,59.30
2018-09-17T00:50:26.780Z,59.40
2018-09-17T00:53:00.352Z,59.60
2018-09-17T00:55:33.927Z,59.60
2018-09-17T00:58:07.364Z,59.80
2018-09-17T01:00:40.787Z,59.90
2018-09-17T01:03:14.327Z,60.00
2018-09-17T01:05:49.991Z,59.90
2018-09-17T01:08:23.490Z,59.80
2018-09-17T01:10:57.045Z,60.10
2018-09-17T01:13:30.471Z,60.20
2018-09-17T01:16:03.951Z,60.10
2018-09-17T01:18:37.644Z,60.10
2018-09-17T01:21:10.994Z,60.10
2018-09-17T01:23:45.524Z,60.20
2018-09-17T01:26:18.999Z,60.30
2018-09-17T01:28:53.503Z,60.30
2018-09-17T01:31:27.043Z,60.60
2018-09-17T01:34:00.375Z,60.70
2018-09-17T01:36:33.986Z,60.60
2018-09-17T01:39:08.607Z,60.70
2018-09-17T01:41:42.052Z,61.10
2018-09-17T01:44:15.424Z,60.90
2018-09-17T01:46:48.831Z,60.80
2018-09-17T01:49:22.189Z,61.00
2018-09-17T01:51:56.619Z,61.20
2018-09-17T01:54:31.228Z,61.30
2018-09-17T01:57:04.723Z,61.20
2018-09-17T01:59:38.183Z,61.30
2018-09-17T02:02:11.661Z,61.30
2018-09-17T02:04:45.038Z,61.40
2018-09-17T02:07:18.447Z,61.50
2018-09-17T02:09:52.861Z,61.50
2018-09-17T02:12:32.811Z,61.60
2018-09-17T02:15:06.434Z,61.60
2018-09-17T02:17:39.979Z,62.50
2018-09-17T02:20:13.370Z,61.90
2018-09-17T02:22:46.905Z,61.90
2018-09-17T02:25:20.334Z,61.90
2018-09-17T02:27:53.896Z,62.00
2018-09-17T02:30:31.591Z,62.00
2018-09-17T02:33:04.967Z,62.00
2018-09-17T02:35:38.692Z,62.00
2018-09-17T02:38:12.105Z,62.00
2018-09-17T02:40:45.679Z,62.00
2018-09-17T02:43:19.139Z,62.10
2018-09-17T02:45:52.747Z,62.00
2018-09-17T02:48:26.394Z,62.20
2018-09-17T02:51:06.212Z,62.20
2018-09-17T02:53:39.908Z,62.30
2018-09-17T02:56:13.296Z,62.50
2018-09-17T02:58:53.389Z,62.60
2018-09-17T03:01:26.852Z,62.80
2018-09-17T03:04:00.341Z,62.80
2018-09-17T03:06:40.332Z,62.80
2018-09-17T03:09:13.864Z,62.90
2018-09-17T03:11:50.563Z,63.00
2018-09-17T03:14:27.293Z,63.00
2018-09-17T03:17:09.964Z,63.10
2018-09-17T03:19:44.623Z,63.20
2018-09-17T03:22:18.267Z,63.30
2018-09-17T03:24:51.813Z,63.40
2018-09-17T03:27:25.501Z,63.60
2018-09-17T03:29:58.947Z,63.80
2018-09-17T03:32:32.435Z,63.90
2018-09-17T03:35:05.890Z,64.10
2018-09-17T03:37:39.349Z,64.10
2018-09-17T03:40:12.781Z,64.10
2018-09-17T03:42:46.184Z,64.20
2018-09-17T03:45:19.908Z,64.20
2018-09-17T03:47:53.384Z,64.20
2018-09-17T03:50:26.766Z,64.30
2018-09-17T03:53:00.203Z,64.20
2018-09-17T03:55:33.575Z,64.40
2018-09-17T03:58:08.012Z,64.30
2018-09-17T04:00:41.553Z,64.30
2018-09-17T04:03:21.525Z,64.40
2018-09-17T04:05:54.981Z,64.50
2018-09-17T04:08:34.693Z,64.50
2018-09-17T04:11:08.400Z,64.60
2018-09-17T04:13:41.963Z,64.50
2018-09-17T04:16:15.608Z,64.40
2018-09-17T04:18:56.283Z,64.50
2018-09-17T04:21:29.892Z,64.40
2018-09-17T04:24:03.474Z,64.50
2018-09-17T04:26:36.890Z,64.60
2018-09-17T04:29:16.829Z,64.80
2018-09-17T04:31:50.368Z,65.00
2018-09-17T04:34:24.873Z,64.90
2018-09-17T04:36:58.398Z,65.00
2018-09-17T04:39:31.904Z,65.50
2018-09-17T04:42:05.476Z,65.10
2018-09-17T04:44:38.836Z,65.10
2018-09-17T04:47:12.313Z,65.20
2018-09-17T04:49:46.139Z,65.30
2018-09-17T04:52:19.977Z,65.50
2018-09-17T04:55:00.206Z,65.70
2018-09-17T04:57:33.888Z,65.90
2018-09-17T05:00:13.668Z,66.60
2018-09-17T05:02:48.136Z,65.70
2018-09-17T05:05:28.040Z,65.80
2018-09-17T05:08:02.432Z,65.80
2018-09-17T05:10:36.046Z,65.80
2018-09-17T05:13:16.082Z,66.00
2018-09-17T05:15:49.424Z,66.10
2018-09-17T05:18:23.016Z,66.30
2018-09-17T05:20:56.696Z,66.30
2018-09-17T05:23:36.552Z,66.30
2018-09-17T05:26:10.343Z,66.40
2018-09-17T05:28:43.981Z,66.50
2018-09-17T05:31:17.446Z,66.70
2018-09-17T05:33:52.412Z,66.80
2018-09-17T05:36:32.151Z,66.80
2018-09-17T05:39:07.998Z,67.00
2018-09-17T05:41:41.448Z,66.80
2018-09-17T05:44:21.384Z,66.90
2018-09-17T05:46:54.978Z,67.00
2018-09-17T05:49:28.479Z,67.20
2018-09-17T05:52:03.044Z,67.30
2018-09-17T05:54:42.822Z,67.20
2018-09-17T05:57:16.561Z,67.30
2018-09-17T05:59:55.348Z,67.40
2018-09-17T06:02:35.096Z,67.40
2018-09-17T06:05:10.850Z,67.90
2018-09-17T06:07:45.289Z,67.90
2018-09-17T06:10:25.275Z,68.40
2018-09-17T06:12:59.782Z,68.90
2018-09-17T06:15:39.724Z,68.90
2018-09-17T06:21:02.260Z,69.00
2018-09-17T06:23:42.120Z,69.00
2018-09-17T06:26:15.863Z,69.40
2018-09-17T06:28:49.664Z,69.70
2018-09-17T06:31:23.142Z,69.90
2018-09-17T06:34:03.067Z,69.90
2018-09-17T06:36:36.465Z,70.00
2018-09-17T06:39:16.260Z,70.40
2018-09-17T06:41:56.252Z,70.50
2018-09-17T06:44:36.139Z,70.30
2018-09-17T06:47:16.087Z,70.30
2018-09-17T06:49:49.618Z,70.20
2018-09-17T06:52:23.125Z,70.30
2018-09-17T06:54:57.030Z,70.50
2018-09-17T06:57:36.739Z,70.70
2018-09-17T07:00:10.322Z,70.70
2018-09-17T07:02:50.198Z,70.60
2018-09-17T07:05:30.117Z,70.50
2018-09-17T07:08:03.753Z,70.70
2018-09-17T07:10:37.309Z,70.70
2018-09-17T07:13:10.682Z,70.50
2018-09-17T07:15:44.491Z,70.40
2018-09-17T07:18:18.047Z,70.30
2018-09-17T07:20:51.847Z,70.20
2018-09-17T07:23:25.916Z,70.10
2018-09-17T07:26:01.692Z,70.00
2018-09-17T07:28:41.676Z,69.70
2018-09-17T07:31:15.249Z,69.60
2018-09-17T07:33:49.943Z,69.40
2018-09-17T07:36:23.717Z,69.30
2018-09-17T07:38:57.097Z,69.20
2018-09-17T07:41:30.723Z,69.40
2018-09-17T07:44:10.605Z,69.50
2018-09-17T07:46:50.550Z,69.40
2018-09-17T07:49:23.994Z,69.20
2018-09-17T07:51:57.589Z,69.40
2018-09-17T07:54:37.540Z,69.10
2018-09-17T07:57:11.059Z,69.00
2018-09-17T07:59:44.479Z,69.10
2018-09-17T08:02:18.886Z,69.20
2018-09-17T08:04:52.286Z,69.20
2018-09-17T08:07:25.940Z,69.40
2018-09-17T08:09:59.497Z,69.00
2018-09-17T08:12:39.160Z,68.50
2018-09-17T08:15:12.571Z,68.30
2018-09-17T08:17:45.977Z,68.40
2018-09-17T08:20:21.480Z,68.50
2018-09-17T08:22:54.992Z,68.60
2018-09-17T08:25:28.495Z,68.50
2018-09-17T08:28:02.104Z,68.40
2018-09-17T08:30:41.981Z,68.00
2018-09-17T08:33:21.990Z,67.70
2018-09-17T08:35:55.527Z,67.10
2018-09-17T08:38:35.448Z,66.10
2018-09-17T08:41:09.829Z,66.10
2018-09-17T08:43:49.773Z,66.70
2018-09-17T08:46:29.935Z,65.60
2018-09-17T08:49:10.000Z,65.40
2018-09-17T08:51:44.515Z,65.00
2018-09-17T08:54:18.226Z,64.90
2018-09-17T08:56:58.099Z,64.60
2018-09-17T08:59:37.317Z,63.90
2018-09-17T09:02:14.753Z,63.20
2018-09-17T09:04:53.176Z,63.50
2018-09-17T09:07:34.901Z,63.20
2018-09-17T09:10:17.676Z,62.10
2018-09-17T09:12:57.238Z,62.60
2018-09-17T09:15:37.387Z,61.30
2018-09-17T09:18:10.846Z,60.90
2018-09-17T09:20:44.446Z,62.10
2018-09-17T09:23:24.385Z,59.20
2018-09-17T09:25:58.010Z,56.80
2018-09-17T09:28:38.120Z,55.20
2018-09-17T09:31:12.674Z,53.90
2018-09-17T09:33:53.397Z,53.60
2018-09-17T09:36:26.865Z,52.80
2018-09-17T09:39:00.484Z,51.20
2018-09-17T09:41:34.144Z,52.30
2018-09-17T09:44:14.211Z,53.50
2018-09-17T09:46:48.732Z,54.50
2018-09-17T09:49:22.168Z,54.70
2018-09-17T09:52:02.208Z,54.60
2018-09-17T09:54:42.289Z,55.00
2018-09-17T09:57:22.399Z,55.70
2018-09-17T09:59:56.188Z,55.50
2018-09-17T10:02:35.079Z,56.50
2018-09-17T10:05:09.611Z,53.00
2018-09-17T10:07:43.943Z,48.70
2018-09-17T10:10:23.206Z,46.90
2018-09-17T10:13:03.448Z,46.40
2018-09-17T10:15:42.710Z,45.50
2018-09-17T10:18:28.309Z,45.40
2018-09-17T10:21:01.993Z,44.40
2018-09-17T10:23:35.656Z,44.40
2018-09-17T10:26:09.346Z,44.40
2018-09-17T10:28:43.388Z,44.50
2018-09-17T10:31:17.368Z,44.20
2018-09-17T10:33:51.005Z,44.90
2018-09-17T10:36:24.574Z,46.10
2018-09-17T10:38:58.068Z,46.70
2018-09-17T10:41:38.089Z,46.30
2018-09-17T10:44:11.551Z,46.20
2018-09-17T10:46:51.542Z,45.80
2018-09-17T10:49:25.098Z,45.40
2018-09-17T10:51:59.005Z,45.60
2018-09-17T10:54:38.940Z,45.70
2018-09-17T10:57:12.519Z,45.40
2018-09-17T10:59:46.440Z,45.20
2018-09-17T11:02:20.185Z,44.30
2018-09-17T11:04:54.752Z,44.70
2018-09-17T11:07:34.656Z,44.70
2018-09-17T11:10:08.212Z,45.40
2018-09-17T11:12:42.194Z,45.20
2018-09-17T11:15:16.873Z,46.10
2018-09-17T11:17:50.395Z,43.80
2018-09-17T11:20:23.949Z,45.50
2018-09-17T11:23:00.755Z,43.40
2018-09-17T11:25:34.323Z,44.00
2018-09-17T11:28:07.791Z,44.40
2018-09-17T11:30:41.538Z,44.10
2018-09-17T11:33:15.178Z,44.10
2018-09-17T11:35:48.842Z,43.20
2018-09-17T11:38:28.903Z,44.00
2018-09-17T11:41:02.443Z,44.10
2018-09-17T11:43:35.915Z,42.40
2018-09-17T11:46:09.325Z,41.90
2018-09-17T11:48:42.832Z,41.60
2018-09-17T11:51:16.345Z,42.00
2018-09-17T11:53:49.898Z,41.70
2018-09-17T11:56:23.413Z,42.10
2018-09-17T11:58:56.814Z,42.00
2018-09-17T12:01:36.211Z,41.80
2018-09-17T12:04:11.549Z,40.70
2018-09-17T12:06:51.828Z,41.40
2018-09-17T12:09:32.235Z,41.00
2018-09-17T12:12:06.885Z,40.30
2018-09-17T12:14:40.350Z,40.80
2018-09-17T12:17:19.096Z,40.90
2018-09-17T12:19:52.710Z,40.00
2018-09-17T12:22:26.407Z,39.70
2018-09-17T12:25:01.128Z,39.10
2018-09-17T12:27:39.839Z,39.30
2018-09-17T12:30:19.982Z,39.00
2018-09-17T12:32:54.415Z,37.80
2018-09-17T12:35:28.173Z,38.40
2018-09-17T12:38:08.263Z,39.30
2018-09-17T12:41:45.855Z,38.60
2018-09-17T12:44:19.429Z,38.80
2018-09-17T12:46:58.388Z,39.10
2018-09-17T12:49:32.473Z,37.50
2018-09-17T12:52:12.779Z,35.40
2018-09-17T12:54:46.321Z,35.30
2018-09-17T12:57:20.989Z,33.00
2018-09-17T12:59:55.148Z,33.30
2018-09-17T13:02:29.692Z,33.90
2018-09-17T13:05:04.452Z,35.50
2018-09-17T13:07:38.952Z,34.20
2018-09-17T13:10:12.652Z,32.50
2018-09-17T13:12:46.193Z,33.30
2018-09-17T13:15:19.925Z,33.00
2018-09-17T13:18:00.018Z,30.70
2018-09-17T13:20:33.575Z,31.50
2018-09-17T13:23:08.097Z,31.00
2018-09-17T13:25:41.812Z,31.60
2018-09-17T13:28:15.841Z,31.00
2018-09-17T13:30:55.922Z,30.50
2018-09-17T13:33:29.521Z,33.30
2018-09-17T13:36:03.233Z,32.30
2018-09-17T13:38:37.037Z,32.30
2018-09-17T13:41:10.513Z,31.20
2018-09-17T13:43:44.094Z,30.90
2018-09-17T13:46:17.682Z,29.90
2018-09-17T13:48:57.821Z,29.50
2018-09-17T13:51:37.992Z,28.90
2018-09-17T13:54:13.040Z,29.60
2018-09-17T13:56:46.552Z,30.50
2018-09-17T13:59:20.156Z,29.90
2018-09-17T14:01:53.772Z,29.60
2018-09-17T14:04:27.637Z,28.00
2018-09-17T14:07:07.683Z,27.90
2018-09-17T14:09:41.299Z,28.60
2018-09-17T14:12:14.908Z,27.70
2018-09-17T14:14:55.090Z,28.40
2018-09-17T14:17:28.926Z,27.50
2018-09-17T14:20:02.678Z,28.10
2018-09-17T14:22:36.147Z,28.30
2018-09-17T14:25:09.696Z,26.60
2018-09-17T14:27:43.253Z,26.70
2018-09-17T14:30:16.817Z,25.70
2018-09-17T14:32:56.019Z,26.20
2018-09-17T14:35:29.459Z,26.90
2018-09-17T14:38:04.087Z,25.70
2018-09-17T14:40:43.904Z,26.20
2018-09-17T14:43:17.642Z,27.00
2018-09-17T14:45:51.518Z,27.40
2018-09-17T14:48:31.387Z,27.50
2018-09-17T14:51:04.983Z,27.60
2018-09-17T14:53:38.708Z,28.30
2018-09-17T14:56:12.318Z,29.10
2018-09-17T14:58:52.237Z,28.90
2018-09-17T15:01:26.694Z,29.60
2018-09-17T15:04:00.625Z,29.30
2018-09-17T15:06:34.252Z,29.40
2018-09-17T15:09:08.388Z,29.70
2018-09-17T15:11:42.097Z,29.50
2018-09-17T15:14:22.347Z,29.50
2018-09-17T15:16:55.851Z,29.50
2018-09-17T15:19:29.527Z,29.50
2018-09-17T15:22:03.232Z,29.40
2018-09-17T15:24:36.840Z,29.70
2018-09-17T15:27:16.898Z,29.80
2018-09-17T15:29:50.507Z,30.20
2018-09-17T15:32:24.270Z,30.10
2018-09-17T15:34:57.722Z,30.60
2018-09-17T15:37:37.681Z,30.90
2018-09-17T15:40:18.106Z,31.40
2018-09-17T15:42:52.973Z,31.70
2018-09-17T15:45:26.520Z,32.00
2018-09-17T15:48:06.666Z,31.80
2018-09-17T15:50:46.890Z,31.80
2018-09-17T15:53:21.034Z,31.60
2018-09-17T15:55:54.834Z,31.20
2018-09-17T15:58:28.271Z,31.40
2018-09-17T16:01:01.857Z,32.10
2018-09-17T16:03:35.498Z,32.40
2018-09-17T16:06:09.060Z,32.30
2018-09-17T16:08:49.123Z,32.70
2018-09-17T16:11:22.824Z,33.20
2018-09-17T16:13:56.459Z,34.10
2018-09-17T16:16:30.096Z,35.70
2018-09-17T16:19:03.794Z,35.10
2018-09-17T16:21:37.431Z,35.30
2018-09-17T16:24:11.037Z,35.80
2018-09-17T16:26:44.532Z,34.60
2018-09-17T16:29:18.256Z,32.90
2018-09-17T16:31:51.843Z,32.20
2018-09-17T16:34:26.389Z,33.00
2018-09-17T16:37:06.358Z,33.70
2018-09-17T16:39:40.023Z,34.70
2018-09-17T16:42:13.793Z,35.60
2018-09-17T16:44:53.949Z,36.50
2018-09-17T16:47:27.705Z,36.80
2018-09-17T16:50:01.308Z,37.40
2018-09-17T16:52:41.359Z,38.00
2018-09-17T16:55:21.525Z,38.40
2018-09-17T16:57:55.171Z,38.50
2018-09-17T17:00:28.878Z,39.10
2018-09-17T17:03:02.628Z,39.20
2018-09-17T17:05:36.191Z,39.50
2018-09-17T17:08:16.242Z,39.70
2018-09-17T17:10:49.879Z,40.20
2018-09-17T17:13:23.637Z,40.70
2018-09-17T17:16:03.732Z,41.00
2018-09-17T17:18:43.744Z,41.50
2018-09-17T17:21:23.668Z,41.90
2018-09-17T17:23:57.251Z,42.20
2018-09-17T17:26:37.224Z,42.60
2018-09-17T17:29:10.804Z,43.00
2018-09-17T17:31:50.808Z,43.10
2018-09-17T17:34:30.810Z,43.30
2018-09-17T17:37:10.797Z,43.50
2018-09-17T17:39:45.520Z,43.70
2018-09-17T17:42:19.001Z,43.80
2018-09-17T17:44:52.956Z,43.60
2018-09-17T17:47:26.680Z,44.30
2018-09-17T17:50:00.452Z,43.50
2018-09-17T17:52:34.049Z,43.50
2018-09-17T17:55:14.112Z,43.70
2018-09-17T17:57:47.760Z,43.80
2018-09-17T18:00:27.653Z,43.90
2018-09-17T18:03:01.165Z,44.20
2018-09-17T18:05:41.169Z,44.40
2018-09-17T18:08:14.802Z,44.50
2018-09-17T18:10:48.282Z,44.70
2018-09-17T18:13:21.983Z,44.70
2018-09-17T18:16:08.550Z,45.00
2018-09-17T18:18:43.107Z,45.00
2018-09-17T18:21:16.776Z,45.00
2018-09-17T18:23:56.858Z,45.20
2018-09-17T18:26:30.298Z,45.10
2018-09-17T18:29:03.891Z,45.40
2018-09-17T18:31:37.768Z,45.30
2018-09-17T18:34:17.624Z,45.40
2018-09-17T18:36:57.448Z,45.30
2018-09-17T18:39:37.545Z,45.30
2018-09-17T18:42:17.337Z,45.20
2018-09-17T18:44:50.915Z,45.20
2018-09-17T18:47:25.234Z,45.30
2018-09-17T18:49:59.029Z,45.40
2018-09-17T18:52:40.244Z,45.50
2018-09-17T18:55:20.100Z,45.30
2018-09-17T18:58:00.152Z,45.40
2018-09-17T19:00:40.058Z,45.60
2018-09-17T19:03:13.981Z,45.70
2018-09-17T19:05:47.565Z,45.70
2018-09-17T19:08:27.574Z,45.80
2018-09-17T19:11:07.659Z,45.80
2018-09-17T19:13:53.236Z,46.00
2018-09-17T19:16:32.466Z,46.00
2018-09-17T19:19:06.287Z,46.10
2018-09-17T19:21:46.229Z,46.10
2018-09-17T19:24:19.796Z,46.20
2018-09-17T19:26:59.719Z,46.20
2018-09-17T19:29:39.683Z,46.30
2018-09-17T19:32:13.266Z,46.40
2018-09-17T19:34:53.143Z,46.50
2018-09-17T19:37:33.424Z,46.50
2018-09-17T19:40:09.973Z,46.80
2018-09-17T19:42:44.698Z,46.80
2018-09-17T19:45:24.020Z,46.70
2018-09-17T19:48:04.066Z,46.90
2018-09-17T19:50:43.374Z,47.00
2018-09-17T19:53:16.951Z,47.30
2018-09-17T19:55:50.562Z,47.20
2018-09-17T19:58:29.882Z,47.50
2018-09-17T20:01:03.375Z,47.70
2018-09-17T20:03:37.742Z,47.70
2018-09-17T20:06:17.149Z,47.80
2018-09-17T20:08:51.654Z,47.90
2018-09-17T20:11:25.226Z,48.00
2018-09-17T20:13:58.820Z,48.40
2018-09-17T20:16:38.724Z,48.30
2018-09-17T20:19:12.257Z,48.40
2018-09-17T20:21:47.671Z,48.60
2018-09-17T20:24:21.333Z,48.70
2018-09-17T20:26:55.084Z,48.70
2018-09-17T20:29:29.674Z,48.60
2018-09-17T20:32:03.311Z,48.60
2018-09-17T20:34:37.824Z,48.70
2018-09-17T20:37:11.657Z,48.80
2018-09-17T20:39:45.071Z,49.00
2018-09-17T20:42:19.523Z,49.00
2018-09-17T20:44:53.301Z,49.30
2018-09-17T20:47:26.749Z,49.90
2018-09-17T20:50:01.247Z,49.40
2018-09-17T20:52:39.837Z,49.60
2018-09-17T20:55:19.784Z,49.70
2018-09-17T20:57:53.204Z,49.80
2018-09-17T21:00:33.208Z,49.90
2018-09-17T21:04:31.502Z,50.00
2018-09-17T21:07:05.146Z,50.20
2018-09-17T21:09:38.764Z,49.80
2018-09-17T21:12:12.419Z,50.00
2018-09-17T21:14:46.929Z,50.10
2018-09-17T21:17:26.861Z,50.20
2018-09-17T21:20:06.894Z,50.30
2018-09-17T21:22:40.567Z,50.50
2018-09-17T21:25:15.188Z,51.00
2018-09-17T21:27:48.553Z,50.90
2018-09-17T21:30:22.155Z,50.90
2018-09-17T21:32:55.697Z,50.90
2018-09-17T21:35:29.239Z,51.00
2018-09-17T21:38:02.833Z,51.30
2018-09-17T21:40:36.580Z,51.40
2018-09-17T21:43:10.390Z,52.30
2018-09-17T21:45:43.816Z,51.60
2018-09-17T21:48:17.445Z,51.70
2018-09-17T21:50:50.952Z,52.00
2018-09-17T21:53:30.899Z,52.20
2018-09-17T21:56:10.894Z,52.10
2018-09-17T21:58:50.828Z,52.10
2018-09-17T22:01:24.463Z,52.20
2018-09-17T22:04:04.439Z,52.40
2018-09-17T22:06:37.952Z,52.20
2018-09-17T22:09:13.377Z,52.30
2018-09-17T22:11:47.121Z,52.40
2018-09-17T22:14:20.755Z,52.50
2018-09-17T22:17:00.655Z,52.50
2018-09-17T22:19:34.402Z,52.50
2018-09-17T22:22:07.866Z,52.70
2018-09-17T22:24:42.415Z,53.00
2018-09-17T22:27:16.104Z,52.90
2018-09-17T22:29:49.725Z,52.80
2018-09-17T22:32:29.548Z,53.00
2018-09-17T22:35:03.354Z,53.20
2018-09-17T22:37:36.930Z,53.20
2018-09-17T22:40:10.589Z,53.20
2018-09-17T22:42:50.620Z,53.20
2018-09-17T22:45:30.612Z,53.20
2018-09-17T22:48:04.269Z,53.50
2018-09-17T22:50:37.823Z,53.80
2018-09-17T22:53:11.413Z,53.70
2018-09-17T22:55:51.367Z,53.80
2018-09-17T22:58:24.723Z,53.90
2018-09-17T23:00:58.323Z,53.90
2018-09-17T23:03:31.812Z,54.10
2018-09-17T23:06:06.230Z,54.30
2018-09-17T23:08:39.699Z,54.30
2018-09-17T23:11:13.298Z,54.50
2018-09-17T23:13:46.787Z,54.70
2018-09-17T23:16:26.649Z,54.70
2018-09-17T23:19:00.012Z,54.70
2018-09-17T23:21:39.800Z,54.80
2018-09-17T23:24:14.243Z,54.90
2018-09-17T23:33:58.471Z,55.30
2018-09-17T23:36:32.901Z,55.30
2018-09-17T23:39:12.911Z,55.30
2018-09-17T23:41:46.468Z,55.50
2018-09-17T23:44:20.001Z,55.60
2018-09-17T23:46:53.365Z,55.70
2018-09-17T23:49:26.840Z,55.90
2018-09-17T23:52:06.870Z,56.10
2018-09-17T23:54:40.254Z,56.20
2018-09-17T23:57:14.001Z,56.30
2018-09-17T23:59:47.580Z,56.40
